Time;durP1;ratioP1;P1;durP2;ratioP2;P2;SDS_P1;SDS_P2;PMS_P1;PMS_P2;Temp;Humidity;BMP_temperature;BMP_pressure;BME280_temperature;BME280_humidity;BME280_pressure;Samples;Min_cycle;Max_cycle;Signal;HPM_P1;HPM_P2
2023/09/10 00:00:21;;;;;;;32.22;30.40;;;;;;;;;;5021777;28;20037;-67
2023/09/10 00:02:46;;;;;;;30.40;28.45;;;;;;;;;;5038007;28;20117;-67
2023/09/10 00:05:12;;;;;;;37.28;35.13;;;;;;;;;;5022910;28;20044;-64
2023/09/10 00:07:37;;;;;;;49.22;46.58;;;;;;;;;;5034790;28;20102;-64
2023/09/10 00:10:03;;;;;;;56.97;54.03;;;;;;;;;;5036126;28;20037;-62
2023/09/10 00:12:28;;;;;;;72.72;68.95;;;;;;;;;;5024432;28;20032;-62
2023/09/10 00:14:54;;;;;;;85.82;81.43;;;;;;;;;;5033807;28;20033;-68
2023/09/10 00:17:19;;;;;;;97.63;92.55;;;;;;;;;;5037187;28;20056;-62
2023/09/10 00:19:44;;;;;;;100.93;95.78;;;;;;;;;;5036730;28;20048;-66
2023/09/10 00:22:10;;;;;;;120.03;113.95;;;;;;;;;;5033216;28;20032;-66
2023/09/10 00:24:35;;;;;;;125.07;118.68;;;;;;;;;;5033869;28;20026;-64
2023/09/10 00:27:01;;;;;;;136.88;129.77;;;;;;;;;;5036429;28;20020;-62
2023/09/10 00:29:26;;;;;;;147.60;140.20;;;;;;;;;;5036427;28;20026;-62
2023/09/10 00:31:52;;;;;;;146.48;139.02;;;;;;;;;;5036844;28;20669;-62
2023/09/10 00:34:17;;;;;;;156.60;148.60;;;;;;;;;;5034110;28;20068;-63
2023/09/10 00:36:43;;;;;;;154.13;146.23;;;;;;;;;;5053657;28;20026;-63
2023/09/10 00:39:08;;;;;;;181.20;172.00;;;;;;;;;;5036655;28;20064;-62
2023/09/10 00:41:34;;;;;;;172.13;163.23;;;;;;;;;;5034867;28;20040;-62
2023/09/10 00:43:59;;;;;;;167.05;158.73;;;;;;;;;;5035465;28;20045;-66
2023/09/10 00:46:25;;;;;;;183.02;173.73;;;;;;;;;;5037366;28;20239;-66
2023/09/10 00:48:50;;;;;;;185.73;176.40;;;;;;;;;;5035358;28;20025;-62
2023/09/10 00:51:16;;;;;;;199.60;189.68;;;;;;;;;;5036494;28;20033;-62
2023/09/10 00:53:42;;;;;;;180.32;171.45;;;;;;;;;;5040489;28;20614;-66
2023/09/10 00:56:09;;;;;;;173.55;164.90;;;;;;;;;;5038228;28;20044;-66
2023/09/10 00:58:34;;;;;;;165.82;157.10;;;;;;;;;;5035757;28;20071;-66
2023/09/10 01:01:00;;;;;;;170.82;162.25;;;;;;;;;;5035030;28;20428;-67
2023/09/10 01:03:26;;;;;;;151.25;143.70;;;;;;;;;;5032577;28;20067;-62
2023/09/10 01:05:52;;;;;;;158.80;150.82;;;;;;;;;;5039599;28;20037;-62
2023/09/10 01:08:17;;;;;;;152.93;144.95;;;;;;;;;;5038399;28;20033;-67
2023/09/10 01:10:51;;;;;;;142.55;135.45;;;;;;;;;;5041347;28;20028;-62
2023/09/10 01:13:38;;;;;;;112.75;107.07;;;;;;;;;;5037698;28;20079;-62
2023/09/10 01:16:13;;;;;;;114.30;108.38;;;;;;;;;;5039932;28;20040;-62
2023/09/10 01:18:47;;;;;;;104.35;99.13;;;;;;;;;;5038602;28;20094;-65
2023/09/10 01:21:40;;;;;;;115.15;109.22;;;;;;;;;;5024255;28;20040;-62
2023/09/10 01:24:16;;;;;;;128.77;122.22;;;;;;;;;;5038817;28;20051;-66
2023/09/10 01:26:41;;;;;;;145.95;138.63;;;;;;;;;;5038057;28;20029;-62
2023/09/10 01:29:12;;;;;;;177.27;168.35;;;;;;;;;;5039070;28;20025;-62
2023/09/10 01:31:40;;;;;;;178.02;169.23;;;;;;;;;;5038511;28;20029;-65
2023/09/10 01:34:08;;;;;;;172.75;163.95;;;;;;;;;;5027183;28;20591;-65
2023/09/10 01:36:41;;;;;;;181.30;172.20;;;;;;;;;;5042937;28;20112;-62
2023/09/10 01:39:23;;;;;;;190.43;181.02;;;;;;;;;;5041606;28;20047;-66
2023/09/10 01:41:49;;;;;;;190.30;180.90;;;;;;;;;;5039668;28;20040;-62
2023/09/10 01:44:16;;;;;;;203.35;193.30;;;;;;;;;;5039888;28;20052;-62
2023/09/10 01:46:44;;;;;;;203.80;193.60;;;;;;;;;;5041594;28;20033;-62
2023/09/10 01:49:09;;;;;;;219.73;208.82;;;;;;;;;;5039198;28;20688;-62
2023/09/10 01:51:34;;;;;;;231.10;219.43;;;;;;;;;;5011480;28;20037;-66
2023/09/10 01:54:00;;;;;;;230.00;218.50;;;;;;;;;;5038518;28;20051;-67
2023/09/10 01:56:25;;;;;;;232.80;221.20;;;;;;;;;;5040390;28;20116;-67
2023/09/10 01:58:51;;;;;;;238.38;226.43;;;;;;;;;;5036223;28;20044;-62
2023/09/10 02:01:17;;;;;;;229.48;218.05;;;;;;;;;;5041804;28;20029;-62
2023/09/10 02:03:42;;;;;;;240.43;228.45;;;;;;;;;;5053897;28;20033;-62
2023/09/10 02:06:08;;;;;;;258.80;245.90;;;;;;;;;;5023469;28;20545;-67
2023/09/10 02:08:33;;;;;;;252.70;240.23;;;;;;;;;;5037583;28;20075;-63
2023/09/10 02:11:05;;;;;;;260.70;247.38;;;;;;;;;;5037946;28;20040;-63
2023/09/10 02:13:31;;;;;;;263.20;250.10;;;;;;;;;;5042239;28;20032;-62
2023/09/10 02:15:56;;;;;;;280.55;266.40;;;;;;;;;;5040624;28;20489;-63
2023/09/10 02:18:22;;;;;;;266.80;253.55;;;;;;;;;;5037805;28;20033;-62
2023/09/10 02:20:48;;;;;;;273.48;259.88;;;;;;;;;;5042435;28;20029;-65
2023/09/10 02:23:13;;;;;;;273.10;259.45;;;;;;;;;;5026658;28;20055;-67
2023/09/10 02:25:38;;;;;;;272.58;259.13;;;;;;;;;;5041932;28;20040;-67
2023/09/10 02:28:04;;;;;;;290.58;276.00;;;;;;;;;;5036409;28;20055;-63
2023/09/10 02:30:30;;;;;;;284.08;269.92;;;;;;;;;;5027571;28;20033;-62
2023/09/10 02:32:55;;;;;;;278.80;264.33;;;;;;;;;;5036263;28;20172;-63
2023/09/10 02:35:21;;;;;;;268.00;254.52;;;;;;;;;;5037458;28;20428;-63
2023/09/10 02:37:47;;;;;;;275.23;261.58;;;;;;;;;;5036807;28;20033;-62
2023/09/10 02:40:12;;;;;;;289.73;275.23;;;;;;;;;;5020472;28;20039;-63
2023/09/10 02:42:39;;;;;;;288.95;274.35;;;;;;;;;;5036701;28;20037;-62
2023/09/10 02:45:05;;;;;;;304.20;288.80;;;;;;;;;;5041034;28;20029;-63
2023/09/10 02:47:30;;;;;;;282.00;267.98;;;;;;;;;;5037053;28;20463;-63
2023/09/10 02:49:57;;;;;;;283.75;269.50;;;;;;;;;;5037901;28;20075;-63
2023/09/10 02:52:24;;;;;;;270.70;257.30;;;;;;;;;;5036669;28;20032;-63
2023/09/10 02:54:50;;;;;;;241.77;229.90;;;;;;;;;;5037369;28;20033;-63
2023/09/10 02:57:16;;;;;;;242.80;230.68;;;;;;;;;;5037552;28;20063;-62
2023/09/10 02:59:41;;;;;;;227.23;215.70;;;;;;;;;;5035221;28;20452;-63
2023/09/10 03:02:07;;;;;;;233.95;222.40;;;;;;;;;;5022972;28;20110;-63
2023/09/10 03:04:32;;;;;;;228.18;216.85;;;;;;;;;;5037374;28;20503;-63
2023/09/10 03:06:59;;;;;;;259.77;246.85;;;;;;;;;;5034926;28;20433;-63
2023/09/10 03:09:25;;;;;;;243.10;230.98;;;;;;;;;;5035299;28;20033;-65
2023/09/10 03:11:50;;;;;;;255.05;242.35;;;;;;;;;;5040368;28;20120;-63
2023/09/10 03:14:16;;;;;;;257.65;244.82;;;;;;;;;;5036432;28;20036;-63
2023/09/10 03:16:42;;;;;;;240.82;228.55;;;;;;;;;;5036943;28;20051;-63
2023/09/10 03:19:07;;;;;;;252.07;239.63;;;;;;;;;;5036177;28;20026;-63
2023/09/10 03:21:36;;;;;;;244.02;231.90;;;;;;;;;;5037688;28;20037;-63
2023/09/10 03:24:01;;;;;;;256.85;243.88;;;;;;;;;;5037711;28;20032;-63
2023/09/10 03:26:26;;;;;;;262.42;249.13;;;;;;;;;;5038867;28;20082;-67
2023/09/10 03:28:52;;;;;;;258.30;245.52;;;;;;;;;;5038442;28;20044;-67
2023/09/10 03:31:17;;;;;;;258.55;245.60;;;;;;;;;;5037346;28;20047;-66
2023/09/10 03:33:43;;;;;;;260.35;247.38;;;;;;;;;;5037912;28;20029;-63
2023/09/10 03:36:09;;;;;;;256.85;244.02;;;;;;;;;;5041955;28;20068;-66
2023/09/10 03:38:35;;;;;;;246.55;233.80;;;;;;;;;;5036652;28;20033;-66
2023/09/10 03:41:00;;;;;;;265.60;252.35;;;;;;;;;;5037126;28;20438;-67
2023/09/10 03:43:25;;;;;;;249.23;236.85;;;;;;;;;;5038179;28;20499;-66
2023/09/10 03:45:51;;;;;;;259.52;246.60;;;;;;;;;;5037570;28;20124;-63
2023/09/10 03:48:16;;;;;;;260.60;247.48;;;;;;;;;;5037141;28;20025;-63
2023/09/10 03:50:41;;;;;;;260.52;247.65;;;;;;;;;;5050597;28;20033;-66
2023/09/10 03:53:07;;;;;;;217.85;207.02;;;;;;;;;;5038371;28;20501;-62
2023/09/10 03:55:33;;;;;;;218.75;207.93;;;;;;;;;;5034527;28;20043;-61
2023/09/10 03:57:58;;;;;;;231.38;219.60;;;;;;;;;;5038221;28;20375;-62
2023/09/10 04:00:24;;;;;;;240.07;227.82;;;;;;;;;;5035025;28;20037;-61
2023/09/10 04:02:50;;;;;;;235.80;224.15;;;;;;;;;;5034942;28;20026;-65
2023/09/10 04:05:15;;;;;;;266.50;253.13;;;;;;;;;;5050958;28;20036;-67
2023/09/10 04:07:41;;;;;;;265.80;252.52;;;;;;;;;;5034123;28;20033;-69
2023/09/10 04:10:07;;;;;;;260.00;247.10;;;;;;;;;;5036175;28;20471;-68
2023/09/10 04:12:33;;;;;;;261.33;248.30;;;;;;;;;;5035305;28;20029;-66
2023/09/10 04:14:58;;;;;;;250.95;238.50;;;;;;;;;;5038073;28;20130;-63
2023/09/10 04:17:28;;;;;;;229.27;217.88;;;;;;;;;;5036778;28;20051;-64
2023/09/10 04:19:59;;;;;;;235.67;224.10;;;;;;;;;;5019997;28;20106;-66
2023/09/10 04:22:24;;;;;;;244.07;232.00;;;;;;;;;;5037653;28;20064;-66
2023/09/10 04:24:50;;;;;;;255.95;243.13;;;;;;;;;;5034473;28;20061;-62
2023/09/10 04:27:16;;;;;;;245.55;233.43;;;;;;;;;;5035506;28;20472;-62
2023/09/10 04:29:41;;;;;;;235.48;223.82;;;;;;;;;;5033825;28;20184;-66
2023/09/10 04:32:07;;;;;;;245.52;233.27;;;;;;;;;;5021153;28;20468;-66
2023/09/10 04:34:32;;;;;;;260.17;247.10;;;;;;;;;;5037560;28;20037;-62
2023/09/10 04:36:58;;;;;;;245.50;233.32;;;;;;;;;;5037933;28;20719;-61
2023/09/10 04:39:23;;;;;;;251.00;238.57;;;;;;;;;;5040778;28;20110;-62
2023/09/10 04:41:49;;;;;;;242.50;230.50;;;;;;;;;;5028483;28;20040;-62
2023/09/10 04:44:15;;;;;;;245.70;233.50;;;;;;;;;;5037053;28;20435;-66
2023/09/10 04:46:40;;;;;;;256.58;243.88;;;;;;;;;;5038611;28;20112;-62
2023/09/10 04:49:06;;;;;;;239.85;227.98;;;;;;;;;;5023999;28;20553;-64
2023/09/10 04:51:31;;;;;;;248.13;235.73;;;;;;;;;;5037462;28;20106;-64
2023/09/10 04:53:57;;;;;;;255.95;243.23;;;;;;;;;;5040271;28;21076;-64
2023/09/10 04:56:22;;;;;;;249.32;237.00;;;;;;;;;;5024019;28;20029;-61
2023/09/10 04:58:48;;;;;;;258.10;245.20;;;;;;;;;;5022794;28;20072;-61
2023/09/10 05:01:14;;;;;;;275.75;262.13;;;;;;;;;;5042123;28;20025;-68
2023/09/10 05:03:41;;;;;;;242.20;230.20;;;;;;;;;;5026054;28;20041;-68
2023/09/10 05:06:07;;;;;;;235.73;224.07;;;;;;;;;;5028710;28;20484;-63
2023/09/10 05:08:33;;;;;;;211.35;200.90;;;;;;;;;;5041004;28;20090;-69
2023/09/10 05:10:59;;;;;;;238.25;226.35;;;;;;;;;;5037804;28;20033;-64
2023/09/10 05:13:24;;;;;;;242.05;229.98;;;;;;;;;;5022669;28;20040;-64
2023/09/10 05:15:51;;;;;;;240.82;228.77;;;;;;;;;;5023700;28;20055;-67
2023/09/10 05:18:16;;;;;;;235.63;223.68;;;;;;;;;;5040751;28;20033;-68
2023/09/10 05:20:42;;;;;;;236.30;224.65;;;;;;;;;;5038195;28;20037;-65
2023/09/10 05:23:07;;;;;;;208.20;197.60;;;;;;;;;;5040692;28;20029;-64
2023/09/10 05:25:36;;;;;;;230.18;218.85;;;;;;;;;;5038993;28;20065;-68
2023/09/10 05:28:03;;;;;;;234.80;223.13;;;;;;;;;;5041163;28;20048;-64
2023/09/10 05:30:29;;;;;;;238.80;226.70;;;;;;;;;;5037672;28;20096;-64
2023/09/10 05:32:56;;;;;;;231.90;220.38;;;;;;;;;;5040298;28;20528;-64
2023/09/10 05:35:21;;;;;;;235.95;224.18;;;;;;;;;;5023337;28;20118;-68
2023/09/10 05:37:46;;;;;;;206.05;195.82;;;;;;;;;;5041204;28;20459;-65
2023/09/10 05:40:12;;;;;;;199.23;188.98;;;;;;;;;;5039391;28;20116;-65
2023/09/10 05:42:37;;;;;;;236.15;224.40;;;;;;;;;;5038824;28;20063;-68
2023/09/10 05:45:03;;;;;;;224.02;213.05;;;;;;;;;;5036904;28;20045;-68
2023/09/10 05:47:28;;;;;;;230.30;218.85;;;;;;;;;;5043133;28;20095;-68
2023/09/10 05:49:53;;;;;;;238.40;226.45;;;;;;;;;;5037598;28;20029;-68
2023/09/10 05:52:19;;;;;;;246.30;234.00;;;;;;;;;;5038901;28;20129;-68
2023/09/10 05:54:44;;;;;;;220.20;209.23;;;;;;;;;;5038718;28;20407;-68
2023/09/10 05:57:10;;;;;;;248.02;235.73;;;;;;;;;;5038515;28;20627;-65
2023/09/10 05:59:35;;;;;;;228.07;216.77;;;;;;;;;;5036122;28;20037;-68
2023/09/10 06:02:00;;;;;;;244.48;232.40;;;;;;;;;;5037135;28;20037;-68
2023/09/10 06:04:27;;;;;;;235.00;223.30;;;;;;;;;;5038100;28;20072;-67
2023/09/10 06:06:52;;;;;;;244.68;232.63;;;;;;;;;;5039414;28;20041;-67
2023/09/10 06:09:18;;;;;;;238.52;226.82;;;;;;;;;;5039474;28;20367;-67
2023/09/10 06:11:43;;;;;;;243.45;231.40;;;;;;;;;;5041626;28;20414;-65
2023/09/10 06:14:09;;;;;;;230.38;218.88;;;;;;;;;;5019513;28;20033;-64
2023/09/10 06:16:34;;;;;;;221.98;211.07;;;;;;;;;;5037835;28;20530;-65
2023/09/10 06:18:59;;;;;;;207.48;197.15;;;;;;;;;;5039058;28;20573;-65
2023/09/10 06:21:25;;;;;;;209.73;199.15;;;;;;;;;;5036590;28;20033;-64
2023/09/10 06:23:50;;;;;;;195.82;186.13;;;;;;;;;;5034658;28;20048;-64
2023/09/10 06:26:15;;;;;;;188.02;178.60;;;;;;;;;;5023371;28;20047;-65
2023/09/10 06:28:41;;;;;;;180.55;171.68;;;;;;;;;;5040324;28;20109;-65
2023/09/10 06:31:06;;;;;;;192.57;183.00;;;;;;;;;;5036624;28;20030;-65
2023/09/10 06:33:33;;;;;;;161.02;153.02;;;;;;;;;;5038442;28;20117;-68
2023/09/10 06:35:58;;;;;;;148.25;139.70;;;;;;;;;;5036540;28;20040;-66
2023/09/10 06:38:24;;;;;;;168.15;159.85;;;;;;;;;;5039562;28;20028;-65
2023/09/10 06:40:51;;;;;;;137.30;130.35;;;;;;;;;;5039320;28;20614;-68
2023/09/10 06:43:16;;;;;;;124.45;118.22;;;;;;;;;;5039963;28;20033;-64
2023/09/10 06:45:43;;;;;;;88.25;83.82;;;;;;;;;;5038921;28;20044;-68
2023/09/10 06:48:09;;;;;;;87.63;83.22;;;;;;;;;;5039709;28;20037;-69
2023/09/10 06:50:34;;;;;;;64.05;60.83;;;;;;;;;;5040894;28;20088;-65
2023/09/10 06:52:59;;;;;;;52.60;49.63;;;;;;;;;;5022823;28;20043;-65
2023/09/10 06:55:25;;;;;;;41.40;39.22;;;;;;;;;;5036478;28;20497;-64
2023/09/10 06:57:50;;;;;;;42.75;40.55;;;;;;;;;;5036760;28;20037;-64
2023/09/10 07:00:16;;;;;;;43.03;40.58;;;;;;;;;;5035989;28;20061;-64
2023/09/10 07:02:41;;;;;;;40.25;38.00;;;;;;;;;;5039068;28;20515;-64
2023/09/10 07:05:07;;;;;;;30.30;28.67;;;;;;;;;;5037296;28;20033;-64
2023/09/10 07:07:32;;;;;;;36.45;34.42;;;;;;;;;;5053391;28;20033;-64
2023/09/10 07:09:58;;;;;;;30.98;29.33;;;;;;;;;;5037326;28;20037;-69
2023/09/10 07:12:23;;;;;;;31.73;29.95;;;;;;;;;;5024317;28;20044;-69
2023/09/10 07:14:49;;;;;;;37.85;35.80;;;;;;;;;;5036799;28;20047;-69
2023/09/10 07:17:15;;;;;;;36.47;34.50;;;;;;;;;;5035277;28;20034;-69
2023/09/10 07:19:40;;;;;;;39.95;37.78;;;;;;;;;;5036764;28;20116;-69
2023/09/10 07:22:06;;;;;;;46.25;43.78;;;;;;;;;;5038024;28;20071;-69
2023/09/10 07:24:31;;;;;;;47.92;45.38;;;;;;;;;;5034592;28;20045;-63
2023/09/10 07:26:58;;;;;;;45.15;42.70;;;;;;;;;;5040128;28;20029;-69
2023/09/10 07:29:24;;;;;;;50.78;48.15;;;;;;;;;;5035159;28;20057;-69
2023/09/10 07:31:50;;;;;;;54.70;51.88;;;;;;;;;;5037162;28;20125;-64
2023/09/10 07:34:16;;;;;;;59.60;56.53;;;;;;;;;;5038519;28;20449;-70
2023/09/10 07:36:44;;;;;;;55.13;52.22;;;;;;;;;;5036939;28;20033;-68
2023/09/10 07:39:09;;;;;;;60.53;57.40;;;;;;;;;;5036259;28;20472;-68
2023/09/10 07:41:35;;;;;;;55.10;52.22;;;;;;;;;;5032838;28;20040;-69
2023/09/10 07:44:02;;;;;;;46.55;44.08;;;;;;;;;;5041148;28;20447;-69
2023/09/10 07:46:29;;;;;;;42.45;40.22;;;;;;;;;;5036695;28;20029;-70
2023/09/10 07:48:54;;;;;;;55.80;52.97;;;;;;;;;;5039090;28;20063;-69
2023/09/10 07:51:21;;;;;;;27.38;25.83;;;;;;;;;;5033285;28;20404;-69
2023/09/10 07:53:46;;;;;;;24.38;22.98;;;;;;;;;;5037996;28;20112;-69
2023/09/10 07:56:12;;;;;;;22.40;21.13;;;;;;;;;;5037330;28;20108;-69
2023/09/10 07:58:39;;;;;;;23.38;22.08;;;;;;;;;;5038445;28;20043;-69
2023/09/10 08:01:04;;;;;;;21.88;20.60;;;;;;;;;;5036332;28;20031;-68
2023/09/10 08:03:30;;;;;;;28.63;27.02;;;;;;;;;;5037628;28;20072;-70
2023/09/10 08:05:58;;;;;;;23.00;21.73;;;;;;;;;;5052062;28;20036;-69
2023/09/10 08:08:23;;;;;;;23.40;22.10;;;;;;;;;;5035126;28;20511;-70
2023/09/10 08:10:48;;;;;;;23.88;22.58;;;;;;;;;;5036497;28;20327;-70
2023/09/10 08:13:14;;;;;;;21.30;20.10;;;;;;;;;;5033193;28;20025;-70
2023/09/10 08:15:42;;;;;;;23.63;22.23;;;;;;;;;;5039421;28;20475;-69
2023/09/10 08:18:11;;;;;;;19.48;18.38;;;;;;;;;;5032847;28;20091;-69
2023/09/10 08:20:38;;;;;;;21.30;20.10;;;;;;;;;;5033766;28;20108;-70
2023/09/10 08:23:03;;;;;;;31.23;29.52;;;;;;;;;;5035403;28;20033;-69
2023/09/10 08:25:29;;;;;;;26.48;24.98;;;;;;;;;;5035584;28;20044;-68
2023/09/10 08:27:54;;;;;;;23.75;22.40;;;;;;;;;;5034931;28;20040;-64
2023/09/10 08:30:19;;;;;;;27.85;26.35;;;;;;;;;;5036186;28;20036;-70
2023/09/10 08:32:47;;;;;;;41.95;39.70;;;;;;;;;;5033964;28;20479;-69
2023/09/10 08:35:13;;;;;;;42.97;39.78;;;;;;;;;;5034682;28;20128;-64
2023/09/10 08:37:38;;;;;;;48.55;46.00;;;;;;;;;;5037584;28;20178;-64
2023/09/10 08:40:04;;;;;;;51.63;48.83;;;;;;;;;;5053957;28;20120;-69
2023/09/10 08:42:37;;;;;;;76.68;72.80;;;;;;;;;;5034611;28;20037;-69
2023/09/10 08:45:07;;;;;;;73.32;69.63;;;;;;;;;;5035079;28;20251;-70
2023/09/10 08:47:39;;;;;;;102.75;97.60;;;;;;;;;;5035902;28;20044;-63
2023/09/10 08:50:14;;;;;;;91.43;86.88;;;;;;;;;;5037388;28;20041;-64
2023/09/10 08:52:42;;;;;;;126.07;119.75;;;;;;;;;;5033892;28;20412;-69
2023/09/10 08:55:08;;;;;;;133.95;127.32;;;;;;;;;;5037170;28;20036;-69
2023/09/10 08:57:37;;;;;;;142.05;134.88;;;;;;;;;;5034882;28;20169;-63
2023/09/10 09:00:07;;;;;;;112.55;106.95;;;;;;;;;;5033121;28;20063;-64
2023/09/10 09:02:32;;;;;;;124.53;118.10;;;;;;;;;;5040985;28;20114;-64
2023/09/10 09:04:58;;;;;;;131.45;124.88;;;;;;;;;;5036325;28;20459;-70
2023/09/10 09:07:30;;;;;;;96.47;91.68;;;;;;;;;;5037458;28;20036;-70
2023/09/10 09:10:00;;;;;;;107.65;102.32;;;;;;;;;;5033995;28;20031;-70
2023/09/10 09:12:27;;;;;;;42.80;40.50;;;;;;;;;;5037731;28;20122;-70
2023/09/10 09:14:54;;;;;;;55.83;52.92;;;;;;;;;;5036742;28;20029;-63
2023/09/10 09:17:20;;;;;;;134.00;127.38;;;;;;;;;;5036024;28;20495;-69
2023/09/10 09:19:47;;;;;;;44.70;42.38;;;;;;;;;;5037945;28;20033;-62
2023/09/10 09:22:17;;;;;;;40.50;38.33;;;;;;;;;;5032955;28;20095;-63
2023/09/10 09:24:43;;;;;;;98.72;93.78;;;;;;;;;;5036318;28;20601;-63
2023/09/10 09:27:10;;;;;;;48.60;46.10;;;;;;;;;;5039400;28;20041;-69
2023/09/10 09:29:36;;;;;;;141.88;134.88;;;;;;;;;;5039324;28;20114;-68
2023/09/10 09:32:02;;;;;;;124.30;117.15;;;;;;;;;;5038929;28;20037;-68
2023/09/10 09:34:27;;;;;;;61.80;58.53;;;;;;;;;;5038930;28;20059;-63
2023/09/10 09:36:53;;;;;;;93.40;88.53;;;;;;;;;;5037721;28;20029;-63
2023/09/10 09:39:20;;;;;;;207.10;196.73;;;;;;;;;;5041765;28;20528;-64
2023/09/10 09:41:51;;;;;;;337.75;320.75;;;;;;;;;;5039019;28;20025;-64
2023/09/10 09:44:18;;;;;;;324.25;307.98;;;;;;;;;;5039797;28;20059;-64
2023/09/10 09:46:45;;;;;;;265.02;251.98;;;;;;;;;;5041545;28;20036;-70
2023/09/10 09:49:10;;;;;;;83.90;79.68;;;;;;;;;;5036266;28;20475;-70
2023/09/10 09:51:38;;;;;;;237.93;226.25;;;;;;;;;;5040415;28;20036;-71
2023/09/10 09:54:06;;;;;;;379.08;359.73;;;;;;;;;;5037279;28;20381;-71
2023/09/10 09:56:32;;;;;;;411.50;390.13;;;;;;;;;;5038947;28;20040;-70
2023/09/10 09:58:58;;;;;;;381.20;361.63;;;;;;;;;;5036655;28;20040;-69
2023/09/10 10:01:24;;;;;;;349.98;332.17;;;;;;;;;;5037026;28;20057;-71
2023/09/10 10:03:50;;;;;;;450.77;426.63;;;;;;;;;;5038279;28;20064;-64
2023/09/10 10:06:17;;;;;;;427.92;405.42;;;;;;;;;;5023259;28;20530;-71
2023/09/10 10:08:48;;;;;;;429.67;406.80;;;;;;;;;;5038371;28;20032;-71
2023/09/10 10:11:15;;;;;;;423.80;401.50;;;;;;;;;;5039054;28;20293;-71
2023/09/10 10:13:41;;;;;;;438.08;414.95;;;;;;;;;;5038993;28;20041;-71
2023/09/10 10:16:07;;;;;;;429.15;406.40;;;;;;;;;;5036568;28;20043;-64
2023/09/10 10:18:33;;;;;;;466.08;440.98;;;;;;;;;;5038704;28;20044;-70
2023/09/10 10:21:00;;;;;;;485.85;459.25;;;;;;;;;;5036286;28;20049;-64
2023/09/10 10:23:26;;;;;;;428.25;405.88;;;;;;;;;;5034760;28;20078;-64
2023/09/10 10:25:52;;;;;;;469.65;444.05;;;;;;;;;;5039698;28;20088;-64
2023/09/10 10:28:19;;;;;;;312.55;296.85;;;;;;;;;;5040097;28;20048;-64
2023/09/10 10:31:05;;;;;;;457.55;432.23;;;;;;;;;;5036581;28;20498;-70
2023/09/10 10:33:33;;;;;;;446.30;422.30;;;;;;;;;;5040889;28;20549;-65
2023/09/10 10:36:43;;;;;;;302.35;287.30;;;;;;;;;;5034516;28;20475;-70
2023/09/10 10:39:10;;;;;;;274.02;260.50;;;;;;;;;;5018561;28;20101;-70
2023/09/10 10:41:38;;;;;;;303.05;287.90;;;;;;;;;;5037954;28;20033;-70
2023/09/10 10:44:16;;;;;;;282.05;267.92;;;;;;;;;;5038378;28;20065;-70
2023/09/10 10:46:43;;;;;;;290.50;276.00;;;;;;;;;;5036910;28;20501;-64
2023/09/10 10:49:09;;;;;;;169.77;161.35;;;;;;;;;;5037909;28;20032;-64
2023/09/10 10:51:39;;;;;;;196.20;186.60;;;;;;;;;;5037609;28;20048;-71
2023/09/10 10:54:05;;;;;;;164.13;156.02;;;;;;;;;;5036190;28;20044;-70
2023/09/10 10:56:31;;;;;;;174.25;165.65;;;;;;;;;;5038934;28;20028;-71
2023/09/10 10:58:57;;;;;;;184.02;174.77;;;;;;;;;;5036944;28;20036;-65
2023/09/10 11:01:22;;;;;;;160.85;152.82;;;;;;;;;;5039598;28;20106;-66
2023/09/10 11:03:49;;;;;;;184.05;174.82;;;;;;;;;;5037184;28;20456;-66
2023/09/10 11:06:14;;;;;;;147.75;140.43;;;;;;;;;;5034923;28;20044;-64
2023/09/10 11:08:45;;;;;;;155.98;148.20;;;;;;;;;;5036716;28;20094;-64
2023/09/10 11:11:34;;;;;;;37.13;35.10;;;;;;;;;;5037296;28;20044;-64
2023/09/10 11:14:05;;;;;;;52.95;50.25;;;;;;;;;;5023757;28;20375;-64
2023/09/10 11:16:42;;;;;;;31.20;29.58;;;;;;;;;;5037995;28;20048;-66
2023/09/10 11:19:44;;;;;;;96.65;91.82;;;;;;;;;;5036570;28;20476;-68
2023/09/10 11:22:09;;;;;;;105.93;100.65;;;;;;;;;;5036663;28;20375;-64
2023/09/10 11:24:36;;;;;;;29.48;27.88;;;;;;;;;;5036263;28;20043;-72
2023/09/10 11:27:24;;;;;;;24.25;22.85;;;;;;;;;;5040438;28;20029;-72
2023/09/10 11:30:04;;;;;;;27.27;25.77;;;;;;;;;;5033965;28;20044;-64
2023/09/10 11:32:29;;;;;;;74.95;71.05;;;;;;;;;;5039135;28;20045;-64
2023/09/10 11:35:17;;;;;;;23.83;22.52;;;;;;;;;;5037041;28;20043;-64
2023/09/10 11:37:49;;;;;;;25.27;23.85;;;;;;;;;;5037590;28;20438;-72
2023/09/10 11:40:17;;;;;;;26.98;25.55;;;;;;;;;;5035674;28;20037;-73
2023/09/10 11:42:44;;;;;;;23.08;21.77;;;;;;;;;;5040450;28;20033;-65
2023/09/10 11:45:10;;;;;;;26.17;24.63;;;;;;;;;;5035265;28;20079;-73
2023/09/10 11:47:39;;;;;;;22.77;21.48;;;;;;;;;;5037387;28;20029;-65
2023/09/10 11:50:05;;;;;;;27.85;25.95;;;;;;;;;;5032728;28;20021;-73
2023/09/10 11:52:31;;;;;;;26.52;25.02;;;;;;;;;;5037354;28;20456;-65
2023/09/10 11:54:57;;;;;;;24.40;23.05;;;;;;;;;;5035797;28;20061;-64
2023/09/10 11:57:23;;;;;;;31.77;30.08;;;;;;;;;;5035376;28;20032;-73
2023/09/10 11:59:52;;;;;;;26.20;24.80;;;;;;;;;;5039038;28;20033;-73
2023/09/10 12:02:20;;;;;;;27.63;26.00;;;;;;;;;;5033585;28;20041;-64
2023/09/10 12:04:45;;;;;;;28.15;26.63;;;;;;;;;;5050995;28;20291;-72
2023/09/10 12:07:11;;;;;;;31.75;27.58;;;;;;;;;;5037307;28;20449;-73
2023/09/10 12:09:36;;;;;;;37.33;35.38;;;;;;;;;;5021714;28;20025;-73
2023/09/10 12:12:06;;;;;;;27.38;25.85;;;;;;;;;;5035094;28;20021;-65
2023/09/10 12:14:31;;;;;;;;;;;;;;;;;;5041028;28;20040;-65
2023/09/10 12:16:57;;;;;;;29.00;27.35;;;;;;;;;;5033439;28;19923;-64
2023/09/10 12:19:23;;;;;;;64.70;61.45;;;;;;;;;;5022548;28;20162;-65
2023/09/10 12:21:50;;;;;;;48.60;46.10;;;;;;;;;;5035682;28;20841;-64
2023/09/10 12:24:16;;;;;;;82.43;78.07;;;;;;;;;;5036128;28;20048;-72
2023/09/10 12:26:43;;;;;;;85.07;80.78;;;;;;;;;;5036797;28;20102;-73
2023/09/10 12:29:10;;;;;;;51.28;48.53;;;;;;;;;;5034940;28;20120;-72
2023/09/10 12:31:36;;;;;;;93.20;87.28;;;;;;;;;;5039522;28;20166;-73
2023/09/10 12:34:02;;;;;;;49.33;46.80;;;;;;;;;;5035779;28;20045;-65
2023/09/10 12:36:28;;;;;;;53.33;50.55;;;;;;;;;;5035864;28;20495;-65
2023/09/10 12:38:54;;;;;;;87.60;83.22;;;;;;;;;;5036775;28;20044;-65
2023/09/10 12:41:20;;;;;;;67.70;64.30;;;;;;;;;;5035810;28;20850;-64
2023/09/10 12:43:45;;;;;;;94.07;89.40;;;;;;;;;;5037119;28;20459;-72
2023/09/10 12:46:11;;;;;;;87.70;83.07;;;;;;;;;;5039686;28;20106;-64
2023/09/10 12:48:37;;;;;;;90.72;86.20;;;;;;;;;;5034970;28;20128;-64
2023/09/10 12:51:03;;;;;;;100.38;95.35;;;;;;;;;;5023382;28;20029;-64
2023/09/10 12:53:29;;;;;;;93.15;88.25;;;;;;;;;;5036266;28;20028;-64
2023/09/10 12:55:55;;;;;;;96.93;91.20;;;;;;;;;;5037826;28;20479;-64
2023/09/10 12:58:21;;;;;;;115.60;109.85;;;;;;;;;;5036336;28;20452;-73
2023/09/10 13:00:57;;;;;;;133.20;126.60;;;;;;;;;;5041958;28;20112;-73
2023/09/10 13:03:22;;;;;;;125.82;119.47;;;;;;;;;;5039069;28;20029;-74
2023/09/10 13:05:48;;;;;;;133.23;126.53;;;;;;;;;;5043601;28;20033;-72
2023/09/10 13:08:14;;;;;;;119.68;113.72;;;;;;;;;;5037077;28;20123;-64
2023/09/10 13:10:39;;;;;;;131.85;125.22;;;;;;;;;;5023790;28;20060;-64
2023/09/10 13:13:07;;;;;;;138.15;130.95;;;;;;;;;;5041278;28;20611;-64
2023/09/10 13:15:32;;;;;;;125.72;117.97;;;;;;;;;;5039724;28;20522;-64
2023/09/10 13:17:58;;;;;;;128.32;121.90;;;;;;;;;;5041165;28;20048;-72
2023/09/10 13:20:25;;;;;;;121.43;115.32;;;;;;;;;;5038614;28;20708;-74
2023/09/10 13:22:51;;;;;;;120.53;114.47;;;;;;;;;;5041278;28;20430;-73
2023/09/10 13:25:17;;;;;;;128.30;121.93;;;;;;;;;;5038424;28;20025;-73
2023/09/10 13:27:43;;;;;;;137.63;130.80;;;;;;;;;;5039125;28;20029;-71
2023/09/10 13:30:09;;;;;;;132.50;124.25;;;;;;;;;;5038449;28;20127;-73
2023/09/10 13:32:34;;;;;;;115.18;109.35;;;;;;;;;;5024530;28;20059;-73
2023/09/10 13:34:59;;;;;;;116.55;110.68;;;;;;;;;;5041164;28;20490;-64
2023/09/10 13:37:25;;;;;;;98.53;93.43;;;;;;;;;;5040778;28;20037;-72
2023/09/10 13:39:50;;;;;;;128.27;121.93;;;;;;;;;;5039387;28;20057;-73
2023/09/10 13:42:15;;;;;;;120.45;114.45;;;;;;;;;;5035791;28;20036;-73
2023/09/10 13:44:41;;;;;;;127.70;121.32;;;;;;;;;;5037737;28;20065;-73
2023/09/10 13:47:06;;;;;;;127.85;121.35;;;;;;;;;;5021809;28;20037;-64
2023/09/10 13:49:31;;;;;;;109.18;103.75;;;;;;;;;;5054739;28;20059;-74
2023/09/10 13:51:57;;;;;;;95.85;91.00;;;;;;;;;;5039410;28;20033;-64
2023/09/10 13:54:22;;;;;;;100.72;95.50;;;;;;;;;;5036375;28;20482;-73
2023/09/10 13:56:48;;;;;;;120.80;114.25;;;;;;;;;;5025974;28;20040;-73
2023/09/10 13:59:13;;;;;;;101.32;96.35;;;;;;;;;;5037283;28;20045;-64